Time;durP1;ratioP1;P1;durP2;ratioP2;P2;SDS_P1;SDS_P2;PMS_P1;PMS_P2;Temp;Humidity;BMP_temperature;BMP_pressure;BME280_temperature;BME280_humidity;BME280_pressure;Samples;Min_cycle;Max_cycle;Signal;HPM_P1;HPM_P2
2021/07/29 00:00:44;;;;;;;12.47;11.20;;;;;;;22.80;66.06;98820.81;3363497;29;20524;-70
2021/07/29 00:02:25;;;;;;;11.43;10.13;;;;;;;22.76;65.81;98813.53;3363125;29;20079;-70
2021/07/29 00:04:06;;;;;;;10.53;9.10;;;;;;;22.74;66.23;98819.25;3362915;29;20041;-71
2021/07/29 00:05:47;;;;;;;12.50;11.20;;;;;;;22.68;66.69;98817.75;3363319;29;20069;-69
2021/07/29 00:07:27;;;;;;;10.20;8.57;;;;;;;22.68;66.53;98816.94;3370602;29;20040;-70
2021/07/29 00:09:08;;;;;;;11.50;10.10;;;;;;;22.67;66.80;98810.72;3374121;29;20591;-71
2021/07/29 00:10:49;;;;;;;10.30;9.20;;;;;;;22.65;66.89;98811.00;3375371;29;20567;-70
2021/07/29 00:12:30;;;;;;;13.00;9.40;;;;;;;22.64;66.74;98817.53;3375858;29;20536;-71
2021/07/29 00:14:10;;;;;;;12.87;8.77;;;;;;;22.68;66.67;98816.94;3375418;29;20051;-71
2021/07/29 00:15:51;;;;;;;13.33;9.30;;;;;;;22.70;66.62;98806.59;3375763;29;20135;-70
2021/07/29 00:19:32;;;;;;;16.10;11.75;;;;;;;22.69;66.90;98807.69;3374987;29;20056;-71
2021/07/29 00:21:12;;;;;;;13.20;11.77;;;;;;;22.60;67.25;98802.91;3361161;29;20044;-70
2021/07/29 00:22:58;;;;;;;13.23;9.20;;;;;;;22.60;67.52;98805.63;3372886;29;20120;-71
2021/07/29 00:24:38;;;;;;;12.18;9.85;;;;;;;22.61;66.93;98801.84;3374614;29;20619;-70
2021/07/29 00:26:19;;;;;;;10.90;9.80;;;;;;;22.62;67.41;98797.22;3375666;29;20044;-71
2021/07/29 00:28:05;;;;;;;11.90;10.57;;;;;;;22.57;67.42;98789.94;3360907;29;20055;-70
2021/07/29 00:29:46;;;;;;;16.03;10.97;;;;;;;22.54;67.58;98795.16;3348548;29;20050;-71
2021/07/29 00:31:31;;;;;;;12.03;10.50;;;;;;;22.54;67.76;98790.53;3372273;29;20131;-70
2021/07/29 00:33:12;;;;;;;13.15;9.75;;;;;;;22.54;67.55;98790.53;3375331;29;20059;-71
2021/07/29 00:34:53;;;;;;;9.70;8.80;;;;;;;22.61;67.61;98784.72;3375492;29;20037;-72
2021/07/29 00:36:33;;;;;;;10.87;9.07;;;;;;;22.63;67.35;98782.50;3375465;29;20040;-71
2021/07/29 00:38:15;;;;;;;11.80;10.52;;;;;;;22.68;66.95;98789.78;3374806;29;20044;-74
2021/07/29 00:39:55;;;;;;;13.57;11.93;;;;;;;22.62;67.59;98781.72;3375483;29;20064;-71
2021/07/29 00:41:36;;;;;;;10.40;9.23;;;;;;;22.58;68.02;98786.09;3375355;29;20495;-70
2021/07/29 00:43:17;;;;;;;13.97;9.53;;;;;;;22.57;68.02;98789.94;3375722;29;20044;-71
2021/07/29 00:44:58;;;;;;;10.20;8.87;;;;;;;22.63;68.09;98777.88;3375021;29;20527;-70
2021/07/29 00:46:38;;;;;;;11.43;8.93;;;;;;;22.69;68.03;98785.94;3375703;29;20037;-71
2021/07/29 00:48:19;;;;;;;12.30;11.00;;;;;;;22.67;67.88;98780.81;3361316;29;20060;-71
2021/07/29 00:50:00;;;;;;;13.68;10.60;;;;;;;22.66;68.13;98781.91;3358032;29;20056;-72
2021/07/29 00:51:41;;;;;;;13.40;10.97;;;;;;;22.57;68.21;98776.34;3361778;29;20148;-72
2021/07/29 00:53:21;;;;;;;11.70;9.63;;;;;;;22.50;68.30;98772.41;3358737;29;20579;-71
2021/07/29 00:55:06;;;;;;;14.23;11.93;;;;;;;22.41;69.10;98775.78;3362189;29;20065;-70
2021/07/29 00:56:47;;;;;;;10.60;9.57;;;;;;;22.35;69.34;98771.53;3348802;29;20045;-72
2021/07/29 00:58:28;;;;;;;13.20;11.53;;;;;;;22.31;69.71;98767.81;3347834;29;20101;-71
2021/07/29 01:00:09;;;;;;;10.23;9.10;;;;;;;22.28;69.69;98768.41;3372651;29;20048;-71
2021/07/29 01:01:50;;;;;;;13.60;10.73;;;;;;;22.29;69.99;98766.47;3375312;29;20128;-71
2021/07/29 01:03:31;;;;;;;11.50;9.82;;;;;;;22.27;69.74;98768.69;3374936;29;20620;-70
2021/07/29 01:05:12;;;;;;;10.77;9.40;;;;;;;22.28;69.71;98765.69;3361575;29;20056;-71
2021/07/29 01:06:54;;;;;;;;;;;;;;;22.37;69.28;98768.53;3373304;29;20052;-70
2021/07/29 01:09:00;;;;;;;11.48;10.20;;;;;;;22.40;69.55;98767.94;3348599;29;20403;-70
2021/07/29 01:10:41;;;;;;;15.02;12.50;;;;;;;22.34;69.90;98766.41;3375353;29;20049;-69
2021/07/29 01:12:22;;;;;;;14.60;11.27;;;;;;;22.28;70.17;98756.72;3375022;29;20524;-73
2021/07/29 01:14:03;;;;;;;12.47;10.17;;;;;;;22.24;70.09;98767.34;3375170;29;20093;-70
2021/07/29 01:15:44;;;;;;;15.38;10.93;;;;;;;22.24;70.58;98758.41;3375145;29;20415;-72
2021/07/29 01:17:25;;;;;;;10.30;9.30;;;;;;;22.23;70.41;98754.91;3348640;29;20052;-71
2021/07/29 01:19:07;;;;;;;10.40;8.17;;;;;;;22.23;70.40;98754.91;3359694;29;20140;-71
2021/07/29 01:20:48;;;;;;;12.00;10.60;;;;;;;22.25;70.49;98754.59;3362505;29;20060;-70
2021/07/29 01:22:33;;;;;;;11.10;8.90;;;;;;;22.28;70.57;98760.25;3362239;29;20596;-70
2021/07/29 01:24:14;;;;;;;9.93;8.90;;;;;;;22.29;70.57;98751.00;3362377;29;20615;-71
2021/07/29 01:25:55;;;;;;;9.63;8.70;;;;;;;22.30;70.52;98757.22;3363112;29;20045;-70
2021/07/29 01:27:37;;;;;;;11.27;9.80;;;;;;;22.34;70.34;98758.25;3372417;29;20108;-70
2021/07/29 01:29:19;;;;;;;9.43;8.43;;;;;;;22.37;69.81;98752.22;3363711;29;20049;-72
2021/07/29 01:30:59;;;;;;;18.98;11.73;;;;;;;22.39;69.52;98752.75;3365477;29;20041;-70
2021/07/29 01:32:41;;;;;;;13.33;8.20;;;;;;;22.45;69.65;98753.47;3364744;29;20531;-72
2021/07/29 01:34:22;;;;;;;13.32;10.18;;;;;;;22.47;69.80;98756.72;3376132;29;20103;-72
2021/07/29 01:36:03;;;;;;;14.75;10.77;;;;;;;22.43;70.12;98753.75;3377229;29;20445;-71
2021/07/29 01:37:44;;;;;;;12.70;10.88;;;;;;;22.43;70.38;98756.47;3377513;29;20397;-70
2021/07/29 01:39:25;;;;;;;13.37;10.87;;;;;;;22.42;70.57;98761.09;3377510;29;20052;-72
2021/07/29 01:41:05;;;;;;;11.10;9.80;;;;;;;22.42;70.40;98760.31;3367802;29;20048;-71
2021/07/29 01:42:46;;;;;;;13.93;11.03;;;;;;;22.36;70.37;98747.91;3372353;29;20036;-71
2021/07/29 01:44:27;;;;;;;12.57;10.87;;;;;;;22.29;70.35;98744.75;3377458;29;20127;-71
2021/07/29 01:46:07;;;;;;;13.73;11.43;;;;;;;22.26;70.82;98750.78;3377666;29;20048;-71
2021/07/29 01:47:48;;;;;;;18.07;13.30;;;;;;;22.19;70.86;98743.81;3377073;29;20045;-71
2021/07/29 01:49:29;;;;;;;14.20;11.40;;;;;;;22.15;71.27;98747.38;3362942;29;20219;-70
2021/07/29 01:51:10;;;;;;;14.57;9.67;;;;;;;22.16;71.15;98741.66;3361695;29;20443;-72
2021/07/29 01:52:50;;;;;;;11.77;10.20;;;;;;;22.20;71.08;98740.00;3375518;29;20040;-70
2021/07/29 01:54:31;;;;;;;11.40;9.57;;;;;;;22.25;70.65;98741.81;3363178;29;20576;-71
2021/07/29 01:56:12;;;;;;;13.27;10.23;;;;;;;22.29;70.44;98751.00;3374839;29;20412;-71
2021/07/29 01:57:53;;;;;;;14.40;11.15;;;;;;;22.31;70.64;98748.00;3377117;29;20041;-69
2021/07/29 01:59:36;;;;;;;18.53;12.17;;;;;;;22.31;70.87;98756.13;3377025;29;20496;-69
2021/07/29 02:01:24;;;;;;;15.50;11.60;;;;;;;22.33;70.77;98751.19;3372123;29;20136;-69
2021/07/29 02:03:04;;;;;;;12.27;10.85;;;;;;;22.37;70.58;98753.03;3364415;29;20132;-69
2021/07/29 02:04:45;;;;;;;14.53;11.97;;;;;;;22.36;70.87;98745.19;3351119;29;20052;-70
2021/07/29 02:06:26;;;;;;;10.53;9.47;;;;;;;22.37;70.72;98752.22;3361569;29;20567;-70
2021/07/29 02:08:07;;;;;;;11.73;8.97;;;;;;;22.39;70.65;98750.03;3364330;29;20469;-70
2021/07/29 02:09:47;;;;;;;11.87;9.47;;;;;;;22.46;70.58;98745.03;3364239;29;20049;-71
2021/07/29 02:11:31;;;;;;;11.93;9.40;;;;;;;22.52;70.35;98748.47;3372028;29;20040;-69
2021/07/29 02:13:11;;;;;;;11.82;9.52;;;;;;;22.54;70.47;98749.78;3377229;29;20539;-71
2021/07/29 02:14:52;;;;;;;13.33;10.27;;;;;;;22.58;70.13;98741.84;3363376;29;20080;-70
2021/07/29 02:16:33;;;;;;;10.37;9.27;;;;;;;22.61;70.04;98747.50;3374228;29;20413;-69
2021/07/29 02:18:14;;;;;;;12.13;10.68;;;;;;;22.64;69.96;98751.53;3376907;29;20408;-71
2021/07/29 02:19:54;;;;;;;12.33;8.83;;;;;;;22.67;69.94;98758.28;3377187;29;20071;-68
2021/07/29 02:21:35;;;;;;;11.40;10.03;;;;;;;22.69;70.08;98756.06;3373012;29;20404;-70
2021/07/29 02:23:16;;;;;;;13.27;9.87;;;;;;;22.67;70.06;98761.00;3377066;29;20139;-71
2021/07/29 02:24:56;;;;;;;12.43;10.60;;;;;;;22.64;70.18;98752.34;3376618;29;20056;-70
2021/07/29 02:26:37;;;;;;;10.40;8.93;;;;;;;22.67;70.34;98753.66;3362838;29;20048;-71
2021/07/29 02:28:18;;;;;;;9.83;8.57;;;;;;;22.73;70.45;98754.38;3360591;29;20073;-70
2021/07/29 02:29:59;;;;;;;10.70;9.63;;;;;;;22.76;70.22;98753.78;3373734;29;20512;-70
2021/07/29 02:31:40;;;;;;;12.07;8.60;;;;;;;22.75;70.08;98752.19;3371993;29;20044;-69
2021/07/29 02:33:21;;;;;;;10.13;8.40;;;;;;;22.76;70.05;98748.34;3364616;29;20057;-70
2021/07/29 02:35:06;;;;;;;12.35;8.68;;;;;;;22.78;70.45;98757.81;3364831;29;20099;-71
2021/07/29 02:36:47;;;;;;;9.95;8.57;;;;;;;22.78;69.87;98755.09;3365656;29;20056;-72
2021/07/29 02:38:28;;;;;;;8.57;7.47;;;;;;;22.76;70.06;98756.50;3364634;29;20412;-70
2021/07/29 02:40:09;;;;;;;10.80;8.50;;;;;;;22.73;70.10;98755.19;3356645;29;20120;-71
2021/07/29 02:41:50;;;;;;;9.30;8.17;;;;;;;22.73;70.08;98759.81;3364550;29;20049;-70
2021/07/29 02:43:30;;;;;;;10.27;7.90;;;;;;;22.70;70.02;98746.81;3376588;29;20396;-72
2021/07/29 02:45:11;;;;;;;10.23;7.17;;;;;;;22.74;69.86;98758.69;3376927;29;20052;-71
2021/07/29 02:46:53;;;;;;;9.45;7.57;;;;;;;22.73;69.84;98749.75;3376456;29;20052;-71
2021/07/29 02:48:33;;;;;;;8.60;7.37;;;;;;;22.75;70.03;98757.59;3376951;29;20135;-70
2021/07/29 02:50:14;;;;;;;8.97;7.50;;;;;;;22.74;70.33;98755.97;3376650;29;20044;-70
2021/07/29 02:51:55;;;;;;;9.70;8.80;;;;;;;22.77;69.77;98760.81;3377072;29;20076;-70
2021/07/29 02:53:36;;;;;;;10.73;8.20;;;;;;;22.82;69.79;98767.00;3370412;29;20166;-70
2021/07/29 02:55:16;;;;;;;8.90;7.20;;;;;;;22.85;69.45;98762.88;3367683;29;20045;-70
2021/07/29 02:56:57;;;;;;;8.17;6.63;;;;;;;22.86;69.63;98768.00;3376730;29;20045;-70
2021/07/29 02:58:37;;;;;;;10.20;7.30;;;;;;;22.92;69.66;98773.34;3376642;29;20196;-72
2021/07/29 03:00:18;;;;;;;7.70;6.90;;;;;;;22.96;69.15;98771.66;3376535;29;20394;-72
2021/07/29 03:01:59;;;;;;;7.80;7.00;;;;;;;22.96;69.12;98764.28;3376509;29;20481;-71
2021/07/29 03:03:40;;;;;;;7.87;7.07;;;;;;;23.01;69.43;98769.66;3371069;29;20532;-70
2021/07/29 03:05:21;;;;;;;8.25;7.22;;;;;;;23.02;69.27;98768.56;3370820;29;20530;-69
2021/07/29 03:07:02;;;;;;;7.87;7.00;;;;;;;23.06;69.24;98771.50;3376469;29;20055;-71
2021/07/29 03:08:43;;;;;;;9.70;6.47;;;;;;;23.08;69.25;98777.44;3376333;29;20397;-70
2021/07/29 03:10:23;;;;;;;8.60;6.63;;;;;;;23.11;69.32;98778.75;3362119;29;20675;-69
2021/07/29 03:12:04;;;;;;;7.17;6.07;;;;;;;23.11;69.16;98787.72;3373296;29;20528;-70
2021/07/29 03:13:45;;;;;;;8.63;6.70;;;;;;;23.10;69.32;98782.56;3375792;29;20044;-70
2021/07/29 03:15:26;;;;;;;10.80;6.43;;;;;;;23.07;69.24;98789.41;3364083;29;20404;-74
2021/07/29 03:17:07;;;;;;;9.50;6.97;;;;;;;23.00;69.39;98789.81;3355669;29;20044;-72
2021/07/29 03:18:47;;;;;;;6.33;5.73;;;;;;;22.94;69.35;98782.81;3373635;29;20096;-70
2021/07/29 03:20:28;;;;;;;7.23;5.87;;;;;;;22.85;69.46;98782.69;3376170;29;20100;-72
2021/07/29 03:22:10;;;;;;;9.02;5.82;;;;;;;22.85;69.65;98790.03;3376355;29;20064;-70
2021/07/29 03:23:50;;;;;;;6.50;5.82;;;;;;;22.85;69.79;98793.56;3375544;29;20048;-71
2021/07/29 03:25:31;;;;;;;6.57;5.63;;;;;;;22.89;69.73;98791.03;3362118;29;20054;-72
2021/07/29 03:27:12;;;;;;;8.00;6.00;;;;;;;22.91;69.87;98797.00;3370027;29;20119;-72
2021/07/29 03:28:54;;;;;;;15.45;5.65;;;;;;;22.93;69.41;98802.16;3349644;29;20062;-70
2021/07/29 03:30:35;;;;;;;7.97;5.67;;;;;;;22.96;69.51;98796.91;3360507;29;20136;-68
2021/07/29 03:32:15;;;;;;;8.33;6.90;;;;;;;22.95;69.27;98800.75;3363443;29;20124;-71
2021/07/29 03:33:56;;;;;;;9.00;6.00;;;;;;;22.98;69.18;98804.81;3370649;29;20041;-70
2021/07/29 03:35:38;;;;;;;12.27;6.57;;;;;;;22.98;68.80;98810.25;3361209;29;20041;-69
2021/07/29 03:37:18;;;;;;;10.25;5.80;;;;;;;22.98;69.20;98802.09;3373021;29;20042;-71
2021/07/29 03:38:59;;;;;;;6.60;5.77;;;;;;;22.94;69.06;98801.81;3375974;29;20623;-71
2021/07/29 03:40:41;;;;;;;7.22;6.40;;;;;;;22.94;68.77;98812.69;3376223;29;20041;-70
2021/07/29 03:42:23;;;;;;;6.90;5.35;;;;;;;22.94;68.93;98814.63;3376021;29;20041;-71
2021/07/29 03:44:04;;;;;;;7.05;6.35;;;;;;;22.89;69.11;98807.34;3375822;29;20045;-71
2021/07/29 03:45:44;;;;;;;8.60;5.63;;;;;;;22.86;69.16;98802.50;3376033;29;20050;-69
2021/07/29 03:47:26;;;;;;;6.73;5.67;;;;;;;22.85;68.55;98799.00;3375790;29;20508;-69
2021/07/29 03:49:06;;;;;;;8.40;6.78;;;;;;;22.86;69.18;98797.06;3362956;29;20041;-71
2021/07/29 03:50:47;;;;;;;7.77;5.50;;;;;;;22.86;69.13;98807.94;3375367;29;20500;-70
2021/07/29 03:52:28;;;;;;;6.10;5.50;;;;;;;22.85;69.21;98811.78;3375012;29;20067;-69
2021/07/29 03:54:09;;;;;;;7.60;6.07;;;;;;;22.87;69.36;98806.84;3375923;29;20575;-73
2021/07/29 03:55:50;;;;;;;6.60;6.00;;;;;;;22.84;69.32;98807.44;3376028;29;20564;-70
2021/07/29 03:57:31;;;;;;;7.22;5.97;;;;;;;22.85;69.37;98812.59;3374890;29;20040;-71
2021/07/29 03:59:12;;;;;;;9.70;6.93;;;;;;;22.86;69.15;98819.63;3364490;29;20049;-70
2021/07/29 04:00:56;;;;;;;7.80;6.47;;;;;;;22.83;68.81;98808.53;3363140;29;20649;-71
2021/07/29 04:02:39;;;;;;;6.13;5.47;;;;;;;22.82;69.27;98812.34;3367347;29;20044;-71
2021/07/29 04:04:19;;;;;;;9.02;6.38;;;;;;;22.82;69.06;98805.03;3375722;29;20513;-70
2021/07/29 04:06:00;;;;;;;5.83;5.23;;;;;;;22.88;68.78;98808.47;3375663;29;20073;-70
2021/07/29 04:07:41;;;;;;;7.47;6.70;;;;;;;22.89;68.85;98810.06;3375784;29;20078;-71
2021/07/29 04:09:22;;;;;;;7.80;6.50;;;;;;;22.91;68.79;98802.44;3367174;29;20579;-71
2021/07/29 04:11:05;;;;;;;9.57;7.20;;;;;;;22.92;68.92;98806.75;3362545;29;20046;-72
2021/07/29 04:12:46;;;;;;;9.90;7.53;;;;;;;22.89;68.44;98801.91;3365808;29;20033;-70
2021/07/29 04:14:27;;;;;;;8.50;6.20;;;;;;;22.89;68.52;98801.09;3375493;29;20493;-71
2021/07/29 04:16:08;;;;;;;9.43;7.03;;;;;;;22.88;68.72;98797.59;3376160;29;20056;-72
2021/07/29 04:17:49;;;;;;;10.02;8.07;;;;;;;22.85;68.79;98795.47;3361975;29;20045;-72
2021/07/29 04:19:33;;;;;;;8.00;7.20;;;;;;;22.83;68.76;98801.19;3370431;29;20111;-71
2021/07/29 04:21:15;;;;;;;8.18;7.20;;;;;;;22.81;68.63;98808.84;3375577;29;20064;-70
2021/07/29 04:22:56;;;;;;;;;;;;;;;22.88;68.60;98805.75;3375665;29;20542;-70
2021/07/29 04:24:37;;;;;;;11.50;7.88;;;;;;;22.79;68.98;98811.03;3375613;29;19915;-71
2021/07/29 04:26:17;;;;;;;8.85;6.97;;;;;;;22.77;68.96;98805.13;3374885;29;20456;-71
2021/07/29 04:27:58;;;;;;;10.50;7.60;;;;;;;22.78;69.07;98805.91;3375497;29;20639;-71
2021/07/29 04:29:39;;;;;;;6.70;6.07;;;;;;;22.79;68.94;98808.31;3359962;29;20070;-70
2021/07/29 04:31:20;;;;;;;;;;;;;;;22.84;68.51;98808.22;3372078;29;20051;-72
2021/07/29 04:33:01;;;;;;;8.50;7.05;;;;;;;22.81;68.57;98802.59;3375261;29;20388;-69
2021/07/29 04:34:42;;;;;;;8.10;7.13;;;;;;;22.81;68.22;98805.31;3375610;29;20407;-70
2021/07/29 04:36:22;;;;;;;9.37;7.10;;;;;;;22.81;68.19;98800.69;3375451;29;20520;-70
2021/07/29 04:38:04;;;;;;;7.38;6.28;;;;;;;22.85;68.59;98806.34;3375297;29;20045;-70
2021/07/29 04:39:44;;;;;;;8.83;7.93;;;;;;;22.84;68.00;98796.56;3363555;29;20048;-70
2021/07/29 04:41:25;;;;;;;7.30;6.10;;;;;;;22.85;68.18;98790.84;3367153;29;20096;-70
2021/07/29 04:43:06;;;;;;;10.23;7.97;;;;;;;22.89;68.26;98801.91;3361655;29;20041;-71
2021/07/29 04:44:47;;;;;;;8.70;6.13;;;;;;;22.90;68.74;98792.66;3372750;29;20505;-70
2021/07/29 04:46:27;;;;;;;7.43;6.67;;;;;;;22.92;68.58;98795.06;3375346;29;20096;-71
2021/07/29 04:48:08;;;;;;;7.50;6.77;;;;;;;22.95;68.57;98797.19;3374561;29;20513;-71
2021/07/29 04:49:48;;;;;;;7.10;6.10;;;;;;;22.99;68.24;98795.53;3375483;29;20108;-69
2021/07/29 04:51:29;;;;;;;6.27;5.73;;;;;;;23.05;68.27;98799.75;3365896;29;20097;-72
2021/07/29 04:53:10;;;;;;;8.73;6.43;;;;;;;23.10;67.91;98801.59;3363464;29;20049;-70
2021/07/29 04:54:50;;;;;;;10.37;7.03;;;;;;;23.12;67.68;98796.66;3375280;29;20412;-70
2021/07/29 04:56:32;;;;;;;11.03;7.40;;;;;;;23.10;67.93;98802.41;3375338;29;20044;-71
2021/07/29 04:58:13;;;;;;;9.52;6.25;;;;;;;23.11;67.65;98792.34;3374588;29;20053;-71
2021/07/29 04:59:53;;;;;;;7.53;6.77;;;;;;;23.15;68.12;98799.59;3375368;29;20096;-72
2021/07/29 05:01:38;;;;;;;6.20;5.60;;;;;;;23.21;67.59;98798.41;3374937;29;20052;-70
2021/07/29 05:03:19;;;;;;;8.88;8.00;;;;;;;23.25;67.76;98801.31;3361746;29;20037;-71
2021/07/29 05:04:59;;;;;;;7.53;5.70;;;;;;;23.27;67.40;98799.13;3374546;29;20059;-71
2021/07/29 05:06:41;;;;;;;7.23;6.53;;;;;;;23.32;67.20;98799.03;3377769;29;20047;-71
2021/07/29 05:08:22;;;;;;;7.30;6.60;;;;;;;23.35;67.21;98795.69;3374974;29;20800;-70
2021/07/29 05:10:03;;;;;;;6.27;5.67;;;;;;;23.42;66.88;98800.75;3365021;29;20044;-69
2021/07/29 05:11:43;;;;;;;8.20;6.83;;;;;;;23.47;66.80;98812.34;3374288;29;20060;-70
2021/07/29 05:13:24;;;;;;;11.03;8.13;;;;;;;23.49;66.75;98810.13;3377710;29;20055;-71
2021/07/29 05:15:05;;;;;;;9.33;6.80;;;;;;;23.47;66.78;98798.72;3377802;29;20049;-74
2021/07/29 05:16:46;;;;;;;10.30;7.32;;;;;;;23.49;67.11;98803.84;3365815;29;20041;-70
2021/07/29 05:18:27;;;;;;;8.23;6.90;;;;;;;23.48;67.08;98813.94;3369633;29;20081;-72
2021/07/29 05:20:10;;;;;;;7.93;7.23;;;;;;;23.44;66.92;98814.81;3377670;29;20047;-71
2021/07/29 05:21:50;;;;;;;9.07;7.18;;;;;;;23.46;66.95;98818.84;3363406;29;20048;-72
2021/07/29 05:23:32;;;;;;;8.17;6.27;;;;;;;23.49;67.17;98821.00;3348578;29;20131;-72
2021/07/29 05:25:13;;;;;;;7.93;7.10;;;;;;;23.50;67.13;98809.00;3372522;29;20079;-71
2021/07/29 05:26:53;;;;;;;6.97;6.37;;;;;;;23.52;66.79;98811.44;3377203;29;20049;-71
2021/07/29 05:28:34;;;;;;;7.70;6.40;;;;;;;23.53;67.24;98821.19;3377835;29;20048;-72
2021/07/29 05:30:16;;;;;;;6.90;6.13;;;;;;;23.49;67.07;98820.16;3376079;29;20073;-73
2021/07/29 05:31:57;;;;;;;12.80;7.03;;;;;;;23.51;67.24;98817.97;3364412;29;20531;-70
2021/07/29 05:33:39;;;;;;;8.20;7.00;;;;;;;23.48;66.60;98813.13;3364664;29;20094;-72
2021/07/29 05:35:19;;;;;;;7.82;6.32;;;;;;;23.45;66.84;98819.97;3364684;29;20045;-72
2021/07/29 05:37:00;;;;;;;7.40;6.70;;;;;;;23.48;67.03;98816.66;3364560;29;20536;-74
2021/07/29 05:38:41;;;;;;;7.87;7.07;;;;;;;23.49;66.86;98815.56;3364767;29;20048;-71
2021/07/29 05:40:22;;;;;;;8.17;7.37;;;;;;;23.55;66.26;98818.19;3374668;29;20104;-73
2021/07/29 05:42:02;;;;;;;8.87;7.13;;;;;;;23.56;65.97;98825.22;3376938;29;20045;-72
2021/07/29 05:43:43;;;;;;;13.73;8.03;;;;;;;23.57;66.16;98816.78;3375055;29;20100;-70
2021/07/29 05:45:25;;;;;;;15.13;7.37;;;;;;;23.63;65.72;98826.44;3378197;29;20080;-72
2021/07/29 05:47:05;;;;;;;12.07;7.32;;;;;;;23.67;66.31;98826.63;3377447;29;20041;-71
2021/07/29 05:48:46;;;;;;;11.17;7.00;;;;;;;23.75;66.43;98819.72;3364145;29;20057;-72
2021/07/29 05:50:26;;;;;;;13.57;7.27;;;;;;;23.80;66.42;98820.44;3372765;29;20044;-73
2021/07/29 05:52:07;;;;;;;22.93;8.83;;;;;;;23.81;65.88;98816.59;3377615;29;20127;-74
2021/07/29 05:53:48;;;;;;;16.80;7.43;;;;;;;23.87;66.16;98820.81;3377595;29;20040;-73
2021/07/29 05:55:29;;;;;;;16.33;8.73;;;;;;;23.88;65.74;98822.44;3375864;29;20127;-72
2021/07/29 05:57:10;;;;;;;13.63;7.40;;;;;;;23.90;65.74;98814.75;3377331;29;20055;-73
2021/07/29 05:58:50;;;;;;;13.37;8.20;;;;;;;23.92;65.97;98817.97;3377437;29;20052;-71
2021/07/29 06:00:31;;;;;;;9.40;8.07;;;;;;;23.93;65.95;98813.34;3372407;29;20044;-72
2021/07/29 06:02:12;;;;;;;17.30;8.73;;;;;;;23.90;65.96;98819.41;3371208;29;20488;-72
2021/07/29 06:03:53;;;;;;;13.70;7.70;;;;;;;23.92;65.50;98815.25;3365390;29;20065;-72
2021/07/29 06:05:34;;;;;;;10.03;7.87;;;;;;;23.94;65.87;98817.69;3370334;29;20044;-70
2021/07/29 06:07:24;;;;;;;26.65;8.43;;;;;;;23.92;65.95;98811.75;3346450;29;20361;-71
2021/07/29 06:09:05;;;;;;;19.73;7.57;;;;;;;23.95;65.52;98817.38;3366715;29;20440;-70
2021/07/29 06:10:46;;;;;;;13.27;8.93;;;;;;;23.89;65.14;98813.16;3374541;29;20127;-78
2021/07/29 06:12:28;;;;;;;12.75;8.70;;;;;;;23.84;65.42;98820.63;3373965;29;20033;-77
2021/07/29 06:14:09;;;;;;;12.57;8.27;;;;;;;23.73;65.24;98820.81;3370336;29;20120;-75
2021/07/29 06:15:51;;;;;;;12.53;9.50;;;;;;;23.68;65.01;98829.06;3370082;29;20075;-78
2021/07/29 06:17:35;;;;;;;10.25;8.90;;;;;;;23.58;65.17;98823.03;3372096;29;20037;-75
2021/07/29 06:19:28;;;;;;;14.38;8.40;;;;;;;23.51;65.33;98821.47;3368651;29;20088;-79
2021/07/29 06:21:09;;;;;;;10.35;8.10;;;;;;;23.48;64.99;98830.25;3383106;29;20049;-74
2021/07/29 06:22:56;;;;;;;13.00;8.00;;;;;;;23.47;65.18;98838.72;3363843;29;20049;-76
2021/07/29 06:24:37;;;;;;;10.00;7.97;;;;;;;23.47;65.32;98839.53;3375223;29;20048;-78
2021/07/29 06:26:18;;;;;;;12.90;8.43;;;;;;;23.45;64.97;98838.22;3376249;29;20092;-80
2021/07/29 06:27:59;;;;;;;11.07;7.53;;;;;;;23.42;65.15;98839.63;3381761;29;20111;-78
2021/07/29 06:29:41;;;;;;;16.48;9.18;;;;;;;23.38;65.55;98833.16;3390891;29;20079;-79
2021/07/29 06:31:22;;;;;;;9.05;7.53;;;;;;;23.33;65.31;98833.25;3354726;29;20520;-77
2021/07/29 06:33:03;;;;;;;13.50;8.47;;;;;;;23.35;65.64;98841.91;3372294;29;20041;-77
2021/07/29 06:34:44;;;;;;;14.85;9.25;;;;;;;23.35;65.64;98841.91;3373546;29;20044;-77
2021/07/29 06:36:25;;;;;;;12.18;8.32;;;;;;;23.34;65.74;98839.50;3361065;29;20072;-75
2021/07/29 06:38:06;;;;;;;12.47;8.30;;;;;;;23.33;65.90;98844.13;3372439;29;20043;-75
2021/07/29 06:39:47;;;;;;;15.52;9.27;;;;;;;23.32;66.46;98839.00;3375232;29;20289;-71
2021/07/29 06:41:29;;;;;;;11.67;8.17;;;;;;;23.33;66.44;98843.31;3367370;29;20124;-78
2021/07/29 06:43:11;;;;;;;16.38;9.13;;;;;;;23.34;66.30;98843.03;3351309;29;20056;-79
2021/07/29 06:44:52;;;;;;;18.57;9.63;;;;;;;23.36;66.62;98846.25;3354362;29;20505;-80
2021/07/29 06:46:37;;;;;;;14.13;9.57;;;;;;;23.36;66.57;98840.00;3362614;29;20441;-78
2021/07/29 06:48:19;;;;;;;15.13;9.63;;;;;;;23.31;66.94;98838.19;3375362;29;20040;-80
2021/07/29 06:50:03;;;;;;;22.83;9.93;;;;;;;23.32;66.88;98836.28;3375347;29;20461;-79
2021/07/29 06:51:44;;;;;;;17.05;9.10;;;;;;;23.31;66.71;98840.91;3359401;29;20056;-78
2021/07/29 06:53:25;;;;;;;28.67;10.60;;;;;;;23.31;66.75;98838.19;3370661;29;20519;-77
2021/07/29 06:55:06;;;;;;;23.23;10.40;;;;;;;23.27;66.12;98837.19;3370884;29;20044;-80
2021/07/29 06:56:50;;;;;;;13.27;8.82;;;;;;;23.30;66.29;98840.09;3369880;29;20099;-79
2021/07/29 06:58:30;;;;;;;15.25;8.68;;;;;;;23.30;66.47;98842.81;3356138;29;20041;-81
2021/07/29 07:00:11;;;;;;;13.07;8.93;;;;;;;23.30;66.52;98839.28;3370634;29;20044;-80
2021/07/29 07:01:53;;;;;;;13.95;8.18;;;;;;;23.18;66.37;98814.50;3352602;29;20076;-79
2021/07/29 07:03:34;;;;;;;;;;;;;;;23.36;65.98;98821.78;3367185;29;20079;-77
2021/07/29 07:05:15;;;;;;;15.85;8.57;;;;;;;23.33;65.94;98824.28;3368453;29;20016;-76
2021/07/29 07:06:57;;;;;;;10.80;7.80;;;;;;;23.35;65.36;98825.59;3373882;29;20040;-77
2021/07/29 07:08:38;;;;;;;;;;;;;;;23.56;65.38;98833.38;3350815;29;20128;-77
2021/07/29 07:10:18;;;;;;;15.63;10.57;;;;;;;23.61;65.66;98825.13;3358241;29;19979;-79
2021/07/29 07:11:59;;;;;;;14.87;10.77;;;;;;;23.78;65.47;98833.53;3367318;29;20051;-80
2021/07/29 07:13:40;;;;;;;8.90;7.97;;;;;;;23.88;65.22;98819.72;3369693;29;20576;-76
2021/07/29 07:15:21;;;;;;;10.43;8.23;;;;;;;24.09;67.09;98827.47;3370183;29;20115;-75
2021/07/29 07:17:04;;;;;;;13.37;8.33;;;;;;;24.27;69.07;98831.97;3376270;29;20032;-76
2021/07/29 07:18:44;;;;;;;11.45;8.32;;;;;;;24.44;69.69;98831.28;3376197;29;20045;-75
2021/07/29 07:20:25;;;;;;;12.23;7.47;;;;;;;24.56;69.20;98828.88;3375463;29;20420;-76
2021/07/29 07:22:06;;;;;;;16.03;7.57;;;;;;;24.69;69.23;98829.94;3357978;29;20037;-75
2021/07/29 07:23:47;;;;;;;12.17;7.30;;;;;;;24.77;68.75;98825.66;3367014;29;20095;-74
2021/07/29 07:25:35;;;;;;;10.45;7.43;;;;;;;24.86;67.69;98828.44;3358593;29;20341;-73
2021/07/29 07:27:16;;;;;;;12.48;8.35;;;;;;;24.91;66.68;98825.59;3351887;29;20041;-74
2021/07/29 07:28:59;;;;;;;8.93;6.77;;;;;;;24.96;65.93;98826.28;3372798;29;20053;-75
2021/07/29 07:30:41;;;;;;;10.73;7.18;;;;;;;24.99;65.88;98830.31;3361123;29;20608;-75
2021/07/29 07:32:21;;;;;;;10.20;7.23;;;;;;;25.02;65.78;98830.50;3370585;29;20036;-72
2021/07/29 07:34:02;;;;;;;10.87;7.40;;;;;;;25.05;65.12;98836.44;3361784;29;20485;-74
2021/07/29 07:35:44;;;;;;;9.60;6.47;;;;;;;25.03;64.83;98834.00;3370117;29;20052;-75
2021/07/29 07:37:24;;;;;;;;;;;;;;;25.09;65.16;98838.22;3375356;29;20059;-74
2021/07/29 07:39:05;;;;;;;11.98;6.80;;;;;;;25.02;64.56;98833.22;3361059;29;19923;-77
2021/07/29 07:40:46;;;;;;;19.03;7.67;;;;;;;25.05;63.97;98842.69;3360129;29;20041;-75
2021/07/29 07:42:26;;;;;;;11.07;6.80;;;;;;;25.07;63.63;98843.19;3371821;29;20044;-77
2021/07/29 07:44:07;;;;;;;18.33;7.50;;;;;;;25.13;63.28;98843.88;3375828;29;20071;-74
2021/07/29 07:45:49;;;;;;;26.20;9.10;;;;;;;25.17;64.52;98840.25;3374489;29;20076;-76
2021/07/29 07:47:32;;;;;;;29.42;9.00;;;;;;;25.21;65.03;98846.66;3373159;29;20048;-78
2021/07/29 07:49:13;;;;;;;19.63;8.55;;;;;;;25.23;65.19;98849.09;3374975;29;20036;-77
2021/07/29 07:50:54;;;;;;;20.67;8.53;;;;;;;25.23;64.73;98844.44;3373561;29;20087;-76
2021/07/29 07:52:35;;;;;;;12.82;8.07;;;;;;;25.27;65.14;98844.59;3370801;29;20127;-76
2021/07/29 07:54:16;;;;;;;16.77;8.80;;;;;;;25.27;65.29;98838.34;3370750;29;20063;-76
2021/07/29 07:56:01;;;;;;;;;;;;;;;25.39;64.28;98853.03;3372205;29;20044;-75